KDED/DED METAR and TAF weather

Enter ICAO airport designator
Station Type Date Time Source
KDED METAR 2021/08/04 19:10 UTC NOAA

KDED 041910Z AUTO 22010G19KT 10SM SCT015 BKN020 OVC050 27/24 A3000 RMK AO2 LTG DSNT SW THRU NW T02690242


Station Type Date Time Source
KDED Decoded METAR 2021/08/04 19:10 UTC NOAA

Station name not available
Aug 04, 2021 - 03:10 PM EDT / 2021.08.04 1910 UTC
Wind: from the SW (220 degrees) at 12 MPH (10 KT) gusting to 22 MPH (19 KT):0
Visibility: 10 mile(s):0
Sky conditions: overcast
Weather: Lightning observed
Temperature: 80.4 F (26.9 C)
Dew Point: 75.6 F (24.2 C)
Relative Humidity: 85%
Pressure (altimeter): 30 in. Hg (1015 hPa)
ob: KDED 041910Z AUTO 22010G19KT 10SM SCT015 BKN020 OVC050 27/24 A3000 RMK AO2 LTG DSNT SW THRU NW T02690242
cycle: 19

Station Type Date Time Source
KDED TAF UTC NOAA

Error!

Example: see airport list